Time;durP1;ratioP1;P1;durP2;ratioP2;P2;SDS_P1;SDS_P2;PMS_P1;PMS_P2;Temp;Humidity;BMP_temperature;BMP_pressure;BME280_temperature;BME280_humidity;BME280_pressure;Samples;Min_cycle;Max_cycle;Signal;HPM_P1;HPM_P2
2023/09/11 00:00:55;;;;;;;23.55;14.63;;;;;;;24.63;98.82;101267.19;5058204;28;20048;-67
2023/09/11 00:03:43;;;;;;;26.40;14.38;;;;;;;24.64;98.50;101268.78;5060078;28;20048;-67
2023/09/11 00:06:31;;;;;;;20.73;13.75;;;;;;;24.64;98.12;101263.22;5052222;28;20045;-67
2023/09/11 00:09:19;;;;;;;24.85;14.82;;;;;;;24.62;98.69;101262.75;5052823;28;20103;-67
2023/09/11 00:12:07;;;;;;;20.52;15.85;;;;;;;24.62;98.69;101259.97;5069870;28;20135;-67
2023/09/11 00:14:55;;;;;;;23.42;15.45;;;;;;;24.60;98.76;101256.72;5066842;28;20400;-67
2023/09/11 00:17:43;;;;;;;20.50;14.63;;;;;;;24.59;98.77;101252.34;5056783;28;20036;-67
2023/09/11 00:20:32;;;;;;;22.52;15.90;;;;;;;24.61;98.64;101258.38;5068925;28;20511;-67
2023/09/11 00:23:20;;;;;;;26.25;16.25;;;;;;;24.60;98.19;101256.72;5058031;28;20045;-67
2023/09/11 00:26:08;;;;;;;24.80;16.77;;;;;;;24.58;98.31;101250.72;5070943;28;20055;-67
2023/09/11 00:28:56;;;;;;;21.70;16.17;;;;;;;24.55;98.05;101250.59;5052970;28;20199;-67
2023/09/11 00:31:44;;;;;;;28.73;16.52;;;;;;;24.49;98.79;101244.47;5051875;28;20045;-67
2023/09/11 00:34:32;;;;;;;28.33;16.88;;;;;;;24.48;98.84;101242.84;5054123;28;20421;-67
2023/09/11 00:37:20;;;;;;;26.05;17.00;;;;;;;24.49;98.89;101244.47;5040091;28;20041;-67
2023/09/11 00:40:08;;;;;;;25.45;17.42;;;;;;;24.48;99.00;101240.06;5051697;28;20045;-67
2023/09/11 00:42:56;;;;;;;25.88;16.75;;;;;;;24.40;99.57;101240.97;5037418;28;20052;-67
2023/09/11 00:45:44;;;;;;;26.75;17.60;;;;;;;24.30;100.00;101244.25;5041852;28;20119;-66
2023/09/11 00:48:32;;;;;;;25.42;17.02;;;;;;;24.23;100.00;101239.28;5068290;28;20467;-67
2023/09/11 00:51:21;;;;;;;27.83;17.75;;;;;;;24.21;100.00;101234.06;5054150;28;20040;-66
2023/09/11 00:54:09;;;;;;;23.77;16.80;;;;;;;24.21;100.00;101233.25;5046182;28;20078;-66
2023/09/11 00:56:57;;;;;;;26.15;16.73;;;;;;;24.22;100.00;101230.13;5055540;28;20074;-66
2023/09/11 00:59:48;;;;;;;23.23;17.05;;;;;;;24.21;100.00;101234.06;5070297;28;20492;-65
2023/09/11 01:02:36;;;;;;;29.10;17.67;;;;;;;24.22;100.00;101230.13;5041364;28;20044;-67
2023/09/11 01:05:26;;;;;;;22.55;16.92;;;;;;;24.23;100.00;101237.31;5039857;28;20052;-66
2023/09/11 01:08:14;;;;;;;27.08;17.60;;;;;;;24.24;99.59;101227.81;5046684;28;20056;-66
2023/09/11 01:11:02;;;;;;;23.13;16.77;;;;;;;24.27;99.25;101228.22;5043833;28;20057;-67
2023/09/11 01:13:50;;;;;;;25.73;17.25;;;;;;;24.28;99.38;101232.66;5073101;28;20052;-67
2023/09/11 01:16:50;;;;;;;24.38;17.13;;;;;;;24.28;99.30;101227.09;5038055;28;20124;-68
2023/09/11 01:19:43;;;;;;;26.80;16.73;;;;;;;24.26;99.21;101230.22;5041390;28;20049;-67
2023/09/11 01:23:08;;;;;;;29.90;17.30;;;;;;;24.25;99.35;101228.59;5076127;28;20048;-67
2023/09/11 01:26:21;;;;;;;21.48;16.63;;;;;;;24.23;99.34;101220.59;5039312;28;20055;-67
2023/09/11 01:29:25;;;;;;;26.88;17.67;;;;;;;24.22;99.60;101234.84;5062877;28;20052;-67
2023/09/11 01:32:15;;;;;;;29.38;17.55;;;;;;;24.21;99.79;101225.69;5039138;28;20044;-67
2023/09/11 01:35:03;;;;;;;22.30;16.38;;;;;;;24.19;99.71;101225.22;5054082;28;20082;-66
2023/09/11 01:37:51;;;;;;;27.75;17.40;;;;;;;24.18;99.60;101226.41;5050444;28;20041;-66
2023/09/11 01:40:41;;;;;;;26.05;17.60;;;;;;;24.13;99.68;101231.41;5058001;28;20091;-67
2023/09/11 01:43:32;;;;;;;24.50;16.95;;;;;;;24.10;100.00;101227.38;5048002;28;20140;-67
2023/09/11 01:46:20;;;;;;;22.27;17.00;;;;;;;24.09;99.88;101231.28;5041303;28;20132;-67
2023/09/11 01:49:10;;;;;;;22.50;16.38;;;;;;;24.09;100.00;101225.72;5047947;28;20049;-67
2023/09/11 01:51:58;;;;;;;26.20;18.02;;;;;;;24.06;100.00;101217.28;5051969;28;20091;-67
2023/09/11 01:54:46;;;;;;;27.83;17.67;;;;;;;24.03;100.00;101218.78;5040779;28;20128;-67
2023/09/11 01:57:34;;;;;;;24.58;16.48;;;;;;;24.00;100.00;101217.53;5052462;28;20120;-67
2023/09/11 02:00:22;;;;;;;21.73;15.95;;;;;;;23.96;100.00;101219.38;5047972;28;20496;-67
2023/09/11 02:03:10;;;;;;;23.70;16.88;;;;;;;23.90;100.00;101217.16;5047608;28;20120;-66
2023/09/11 02:05:58;;;;;;;23.42;16.88;;;;;;;23.91;100.00;101216.00;5049510;28;20052;-66
2023/09/11 02:08:46;;;;;;;21.80;16.90;;;;;;;23.88;100.00;101214.72;5035901;28;20138;-67
2023/09/11 02:11:34;;;;;;;23.88;16.52;;;;;;;23.88;100.00;101211.94;5045170;28;20119;-67
2023/09/11 02:14:23;;;;;;;24.42;16.40;;;;;;;23.88;100.00;101219.47;5051963;28;20068;-66
2023/09/11 02:17:11;;;;;;;24.33;16.27;;;;;;;23.86;100.00;101211.50;5053989;28;20454;-66
2023/09/11 02:19:59;;;;;;;29.38;17.02;;;;;;;23.86;100.00;101211.50;5051738;28;20052;-67
2023/09/11 02:22:47;;;;;;;22.48;15.90;;;;;;;23.85;100.00;101209.06;5048890;28;20190;-66
2023/09/11 02:25:35;;;;;;;21.42;15.88;;;;;;;23.83;100.00;101209.41;5053020;28;20061;-66
2023/09/11 02:28:23;;;;;;;23.13;15.65;;;;;;;23.80;100.00;101205.34;5046537;28;20068;-66
2023/09/11 02:31:11;;;;;;;24.30;15.73;;;;;;;23.79;100.00;101200.94;5040437;28;20062;-67
2023/09/11 02:33:59;;;;;;;24.27;17.42;;;;;;;23.75;100.00;101205.56;5051945;28;20041;-66
2023/09/11 02:36:47;;;;;;;21.60;16.05;;;;;;;23.70;100.00;101200.22;5052557;28;20037;-67
2023/09/11 02:39:36;;;;;;;24.75;16.50;;;;;;;23.68;100.00;101202.53;5044949;28;20045;-66
2023/09/11 02:42:24;;;;;;;28.77;16.13;;;;;;;23.68;100.00;101199.75;5043094;28;20041;-66
2023/09/11 02:45:12;;;;;;;28.23;16.83;;;;;;;23.64;100.00;101201.59;5035593;28;20041;-66
2023/09/11 02:48:00;;;;;;;23.75;16.20;;;;;;;23.63;100.00;101190.84;5038356;28;20037;-67
2023/09/11 02:50:48;;;;;;;23.60;15.90;;;;;;;23.61;100.00;101188.41;5050385;28;20037;-66
2023/09/11 02:53:36;;;;;;;22.45;15.45;;;;;;;23.59;100.00;101191.53;5041577;28;20172;-67
2023/09/11 02:56:24;;;;;;;23.05;15.57;;;;;;;23.58;100.00;101192.69;5032961;28;20045;-67
2023/09/11 02:59:12;;;;;;;22.20;14.25;;;;;;;23.57;100.00;101190.25;5042632;28;20053;-66
2023/09/11 03:02:01;;;;;;;21.50;15.13;;;;;;;23.56;100.00;101191.41;5050250;28;20126;-67
2023/09/11 03:04:52;;;;;;;22.08;15.25;;;;;;;23.54;100.00;101185.38;5043772;28;20041;-66
2023/09/11 03:07:40;;;;;;;24.23;15.25;;;;;;;23.51;100.00;101184.09;5050975;28;20063;-66
2023/09/11 03:10:29;;;;;;;25.75;14.80;;;;;;;23.50;100.00;101187.22;5046700;28;20441;-66
2023/09/11 03:13:19;;;;;;;28.40;15.63;;;;;;;23.48;100.00;101181.22;5023454;28;20056;-63
2023/09/11 03:16:12;;;;;;;21.10;14.93;;;;;;;23.46;100.00;101170.44;5037367;28;20041;-64
2023/09/11 03:19:03;;;;;;;20.92;15.07;;;;;;;23.46;100.00;101177.97;5067872;28;20037;-66
2023/09/11 03:21:53;;;;;;;19.92;13.98;;;;;;;23.43;100.00;101171.13;5036978;28;20049;-66
2023/09/11 03:24:41;;;;;;;21.15;13.77;;;;;;;23.42;100.00;101168.69;5008558;28;1102141;-66
2023/09/11 03:27:29;;;;;;;20.55;14.10;;;;;;;23.38;100.00;101169.41;5057501;28;20182;-65
2023/09/11 03:30:17;;;;;;;20.17;13.85;;;;;;;23.37;100.00;101167.75;5052703;28;20404;-66
2023/09/11 03:33:06;;;;;;;26.33;14.50;;;;;;;23.36;100.00;101163.38;5037097;28;20040;-65
2023/09/11 03:35:54;;;;;;;18.20;13.40;;;;;;;23.36;100.00;101163.38;5038561;28;20048;-66
2023/09/11 03:38:42;;;;;;;22.70;13.70;;;;;;;23.34;100.00;101153.75;5027925;28;20453;-66
2023/09/11 03:41:31;;;;;;;25.38;15.13;;;;;;;23.31;100.00;101152.47;5044808;28;20040;-65
2023/09/11 03:44:19;;;;;;;24.70;14.95;;;;;;;23.29;100.00;101151.19;5038215;28;20077;-66
2023/09/11 03:47:07;;;;;;;22.45;14.32;;;;;;;23.29;100.00;101157.56;5039473;28;20056;-65
2023/09/11 03:49:55;;;;;;;24.83;16.20;;;;;;;23.27;100.00;101151.53;5038161;28;20405;-66
2023/09/11 03:52:44;;;;;;;23.05;15.07;;;;;;;23.25;100.00;101153.84;5038681;28;20045;-66
2023/09/11 03:55:32;;;;;;;21.55;15.07;;;;;;;23.21;100.00;101144.59;5048104;28;20040;-66
2023/09/11 03:58:20;;;;;;;26.52;15.55;;;;;;;23.17;100.00;101130.56;5049154;28;20518;-66
2023/09/11 04:01:08;;;;;;;22.80;14.75;;;;;;;23.11;100.00;101128.34;5025529;28;20061;-65
2023/09/11 04:03:57;;;;;;;20.25;14.65;;;;;;;23.08;100.00;101120.72;5037895;28;20390;-66
2023/09/11 04:06:45;;;;;;;25.30;15.35;;;;;;;23.07;100.00;101116.31;5066044;28;20044;-66
2023/09/11 04:09:33;;;;;;;26.33;14.95;;;;;;;23.08;100.00;101120.72;5052496;28;20080;-65
2023/09/11 04:12:22;;;;;;;22.95;15.10;;;;;;;23.09;100.00;101125.09;5046024;28;20415;-65
2023/09/11 04:15:10;;;;;;;25.45;15.32;;;;;;;23.10;100.00;101112.84;5058398;28;20044;-65
2023/09/11 04:17:58;;;;;;;20.63;15.35;;;;;;;23.06;100.00;101111.91;5053558;28;20032;-67
2023/09/11 04:20:46;;;;;;;25.10;14.48;;;;;;;23.04;100.00;101117.00;5053586;28;20041;-67
2023/09/11 04:23:34;;;;;;;21.90;14.43;;;;;;;23.04;100.00;101108.66;5056338;28;20079;-67
2023/09/11 04:26:23;;;;;;;21.90;14.88;;;;;;;23.03;100.00;101109.81;5050462;28;20060;-66
2023/09/11 04:29:11;;;;;;;17.90;13.75;;;;;;;23.03;100.00;101112.59;5047092;28;20045;-68
2023/09/11 04:32:00;;;;;;;22.58;14.15;;;;;;;23.02;100.00;101108.19;5046041;28;20417;-65
2023/09/11 04:34:48;;;;;;;27.25;14.70;;;;;;;23.02;100.00;101110.97;5051823;28;20489;-67
2023/09/11 04:37:37;;;;;;;20.92;13.93;;;;;;;23.00;100.00;101107.75;5049779;28;20511;-67
2023/09/11 04:40:25;;;;;;;22.42;13.93;;;;;;;22.97;100.00;101103.66;5058721;28;20588;-67
2023/09/11 04:43:13;;;;;;;24.17;13.90;;;;;;;22.92;100.00;101107.47;5041149;28;20045;-65
2023/09/11 04:46:02;;;;;;;17.80;13.13;;;;;;;22.89;100.00;101112.88;5042834;28;20053;-67
2023/09/11 04:48:50;;;;;;;21.95;13.55;;;;;;;22.83;100.00;101109.53;5031187;28;20041;-67
2023/09/11 04:51:38;;;;;;;17.70;12.82;;;;;;;22.85;100.00;101118.34;5039574;28;20068;-66
2023/09/11 04:54:26;;;;;;;23.15;13.48;;;;;;;22.83;100.00;101114.28;5035286;28;20568;-67
2023/09/11 04:57:14;;;;;;;22.33;13.75;;;;;;;22.85;100.00;101117.50;5048137;28;20416;-66
2023/09/11 05:00:09;;;;;;;21.58;13.07;;;;;;;22.81;100.00;101116.59;5022884;28;20591;-65
2023/09/11 05:02:59;;;;;;;18.90;12.25;;;;;;;22.80;100.00;101121.34;5038150;28;20413;-63
2023/09/11 05:05:49;;;;;;;23.10;12.40;;;;;;;22.82;100.00;101116.22;5033836;28;20048;-64
2023/09/11 05:08:37;;;;;;;22.45;13.40;;;;;;;22.82;100.00;101118.19;5045745;28;20055;-67
2023/09/11 05:11:30;;;;;;;16.77;12.32;;;;;;;22.81;100.00;101114.63;5054244;28;20544;-66
2023/09/11 05:14:18;;;;;;;14.95;11.80;;;;;;;22.79;100.00;101121.69;5035881;28;20076;-66
2023/09/11 05:17:06;;;;;;;21.20;13.02;;;;;;;22.75;100.00;101113.19;5047051;28;20045;-66
2023/09/11 05:19:54;;;;;;;18.88;12.88;;;;;;;22.75;100.00;101121.53;5040672;28;20053;-66
2023/09/11 05:22:42;;;;;;;21.13;13.45;;;;;;;22.74;100.00;101123.50;5036199;28;20048;-66
2023/09/11 05:25:30;;;;;;;22.15;12.68;;;;;;;22.74;100.00;101117.16;5057981;28;20163;-66
2023/09/11 05:28:18;;;;;;;19.75;12.82;;;;;;;22.73;100.00;101123.88;5049942;28;20101;-66
2023/09/11 05:31:07;;;;;;;22.77;12.48;;;;;;;22.74;100.00;101117.94;5051340;28;20049;-66
2023/09/11 05:33:55;;;;;;;23.48;13.93;;;;;;;22.71;100.00;101121.44;5052028;28;20041;-65
2023/09/11 05:36:43;;;;;;;22.02;13.25;;;;;;;22.70;100.00;101118.97;5050304;28;20496;-66
2023/09/11 05:39:32;;;;;;;21.58;13.60;;;;;;;22.71;100.00;101126.19;5040693;28;20188;-66
2023/09/11 05:42:20;;;;;;;21.48;12.82;;;;;;;22.71;100.00;101129.75;5048835;28;20041;-66
2023/09/11 05:45:08;;;;;;;18.52;11.82;;;;;;;22.71;100.00;101123.41;5038693;28;20052;-66
2023/09/11 05:47:56;;;;;;;17.80;11.05;;;;;;;22.71;100.00;101129.75;5045409;28;20405;-66
2023/09/11 05:50:44;;;;;;;19.88;12.15;;;;;;;22.74;100.00;101134.63;4351515;28;10000818;-65
2023/09/11 05:53:33;;;;;;;16.75;10.70;;;;;;;22.74;100.00;101136.59;5040475;28;20089;-66
2023/09/11 05:56:21;;;;;;;16.05;11.00;;;;;;;22.77;100.00;101139.47;5039124;28;20049;-66
2023/09/11 05:59:09;;;;;;;18.50;11.10;;;;;;;22.81;99.94;101138.81;5050440;28;20153;-67
2023/09/11 06:01:57;;;;;;;16.75;11.07;;;;;;;22.82;99.50;101135.69;5049395;28;20523;-66
2023/09/11 06:04:45;;;;;;;22.25;11.18;;;;;;;22.86;98.96;101144.97;5031658;28;20057;-66
2023/09/11 06:07:33;;;;;;;16.92;10.35;;;;;;;22.88;98.77;101144.63;5042178;28;20045;-67
2023/09/11 06:10:21;;;;;;;17.33;10.52;;;;;;;22.92;98.53;101145.53;5049450;28;20045;-68
2023/09/11 06:13:09;;;;;;;14.88;9.55;;;;;;;22.93;98.19;101147.97;5049741;28;20048;-67
2023/09/11 06:15:57;;;;;;;18.15;10.20;;;;;;;22.93;97.93;101153.53;5047760;28;20053;-68
2023/09/11 06:18:45;;;;;;;15.23;9.73;;;;;;;22.94;97.79;101155.16;5038074;28;20036;-67
2023/09/11 06:21:33;;;;;;;14.27;9.90;;;;;;;22.96;97.55;101157.59;5062264;28;20060;-65
2023/09/11 06:24:21;;;;;;;15.20;9.85;;;;;;;22.98;97.55;101155.31;5061153;28;20094;-65
2023/09/11 06:27:09;;;;;;;17.90;10.00;;;;;;;23.02;97.65;101156.25;5034443;28;20046;-65
2023/09/11 06:29:57;;;;;;;15.88;8.50;;;;;;;23.05;97.32;101149.19;5051520;28;20509;-65
2023/09/11 06:32:46;;;;;;;15.25;9.30;;;;;;;23.04;96.71;101159.50;5049829;28;20045;-64
2023/09/11 06:35:34;;;;;;;20.73;8.43;;;;;;;23.04;96.78;101153.13;5034051;28;20505;-65
2023/09/11 06:38:22;;;;;;;13.82;8.52;;;;;;;23.06;96.87;101161.94;5043604;28;20045;-64
2023/09/11 06:41:10;;;;;;;14.73;8.57;;;;;;;23.06;96.88;101159.97;5049702;28;20048;-65
2023/09/11 06:43:58;;;;;;;15.82;8.40;;;;;;;23.09;96.92;101164.00;5046728;28;20085;-68
2023/09/11 06:46:46;;;;;;;21.20;8.82;;;;;;;23.11;96.83;101164.47;5063808;28;20052;-61
2023/09/11 06:49:34;;;;;;;20.45;8.82;;;;;;;23.12;96.51;101160.56;5058868;28;20101;-62
2023/09/11 06:52:23;;;;;;;19.90;8.95;;;;;;;23.12;96.37;101166.13;5036896;28;20046;-61
2023/09/11 06:55:11;;;;;;;27.25;10.38;;;;;;;23.12;96.76;101157.78;5042870;28;20445;-62
2023/09/11 06:58:00;;;;;;;26.20;11.23;;;;;;;23.16;97.66;101153.13;5048600;28;20048;-62
2023/09/11 07:00:48;;;;;;;32.10;12.55;;;;;;;23.19;96.53;101149.69;5052823;28;20057;-63
2023/09/11 07:03:36;;;;;;;21.30;10.60;;;;;;;23.18;96.00;101145.25;5054421;28;20531;-64
2023/09/11 07:06:25;;;;;;;15.75;9.55;;;;;;;23.16;96.16;101147.56;5052841;28;20454;-64
2023/09/11 07:09:13;;;;;;;15.20;9.45;;;;;;;23.16;95.91;101150.34;5032423;28;20100;-63
2023/09/11 07:12:01;;;;;;;17.70;11.07;;;;;;;23.13;95.98;101159.41;5033174;28;20418;-62
2023/09/11 07:14:49;;;;;;;18.13;10.65;;;;;;;23.12;96.28;101155.81;5034152;28;20133;-62
2023/09/11 07:17:37;;;;;;;29.38;11.57;;;;;;;23.10;96.88;101151.75;5032271;28;20045;-62
2023/09/11 07:20:25;;;;;;;26.08;11.15;;;;;;;23.09;97.17;101150.13;5033870;28;20045;-63
2023/09/11 07:23:13;;;;;;;17.45;10.70;;;;;;;23.10;96.74;101152.56;5033839;28;20509;-64
2023/09/11 07:26:01;;;;;;;17.88;9.88;;;;;;;23.10;96.89;101154.53;5047131;28;20056;-63
2023/09/11 07:28:54;;;;;;;19.50;9.27;;;;;;;23.12;97.27;101149.44;5068314;28;20126;-62
2023/09/11 07:31:42;;;;;;;21.83;10.75;;;;;;;23.13;97.42;101146.31;5071317;28;20045;-63
2023/09/11 07:34:30;;;;;;;21.02;10.23;;;;;;;23.14;96.94;101147.13;5059441;28;20516;-63
2023/09/11 07:37:18;;;;;;;17.67;8.32;;;;;;;23.11;97.07;101142.25;5072437;28;20127;-62
2023/09/11 07:40:07;;;;;;;17.70;9.13;;;;;;;23.14;97.18;101141.56;5072258;28;20048;-63
2023/09/11 07:42:55;;;;;;;16.80;8.88;;;;;;;23.15;97.11;101145.97;5071417;28;20090;-63
2023/09/11 07:45:44;;;;;;;14.65;8.93;;;;;;;23.18;97.40;101148.03;5072106;28;20056;-63
2023/09/11 07:48:34;;;;;;;16.23;9.40;;;;;;;23.20;97.25;101154.06;5053316;28;20110;-62
2023/09/11 07:51:23;;;;;;;23.15;10.77;;;;;;;23.22;97.06;101157.31;5052993;28;20071;-62
2023/09/11 07:54:11;;;;;;;15.93;9.30;;;;;;;23.18;97.53;101159.97;5054117;28;20080;-63
2023/09/11 07:57:01;;;;;;;16.75;8.38;;;;;;;23.19;97.73;101149.69;5044542;28;20040;-61
2023/09/11 07:59:49;;;;;;;16.05;8.77;;;;;;;23.23;97.74;101155.34;5053574;28;20041;-63
2023/09/11 08:02:42;;;;;;;14.15;8.20;;;;;;;23.24;97.66;101160.56;5051531;28;20041;-62
2023/09/11 08:05:33;;;;;;;19.92;9.65;;;;;;;23.29;97.74;101162.31;5038002;28;20113;-64
2023/09/11 08:08:21;;;;;;;20.10;9.57;;;;;;;23.29;97.75;101177.03;5051878;28;20102;-62
2023/09/11 08:11:14;;;;;;;21.00;10.88;;;;;;;23.32;97.75;101170.75;5052633;28;20056;-63
2023/09/11 08:14:03;;;;;;;16.83;8.30;;;;;;;23.30;98.20;101173.06;5038759;28;20051;-64
2023/09/11 08:16:50;;;;;;;21.50;11.27;;;;;;;23.31;97.55;101185.84;5051570;28;20132;-61
2023/09/11 08:19:39;;;;;;;23.60;12.18;;;;;;;23.32;97.46;101183.88;5051191;28;20423;-62
2023/09/11 08:22:27;;;;;;;14.77;9.82;;;;;;;23.32;97.40;101193.00;5060052;28;20055;-62
2023/09/11 08:25:15;;;;;;;19.60;10.52;;;;;;;23.36;96.55;101180.03;5071012;28;20088;-62
2023/09/11 08:28:03;;;;;;;21.65;11.60;;;;;;;23.34;97.14;101179.56;5056812;28;20048;-63
2023/09/11 08:30:51;;;;;;;24.10;12.88;;;;;;;23.37;97.05;101191.97;5023563;28;20438;-62
2023/09/11 08:33:39;;;;;;;18.25;11.88;;;;;;;23.39;97.30;101176.56;5053598;28;20140;-61
2023/09/11 08:36:42;;;;;;;26.10;13.55;;;;;;;23.38;97.55;101180.50;5060014;28;20131;-62
2023/09/11 08:39:33;;;;;;;21.83;13.43;;;;;;;23.38;98.62;101186.09;5072312;28;20370;-62
2023/09/11 08:42:22;;;;;;;22.30;13.38;;;;;;;23.39;98.48;101182.13;5058191;28;20048;-63
2023/09/11 08:45:10;;;;;;;15.50;10.38;;;;;;;23.39;98.30;101193.25;5072664;28;20059;-62
2023/09/11 08:47:59;;;;;;;18.77;9.73;;;;;;;23.43;98.15;101181.44;5069996;28;20409;-62
2023/09/11 08:50:54;;;;;;;23.10;13.55;;;;;;;23.45;98.67;101181.91;5071059;28;20043;-62
2023/09/11 08:53:44;;;;;;;22.20;12.50;;;;;;;23.45;98.81;101174.38;5072978;28;20040;-62
2023/09/11 08:56:32;;;;;;;23.75;14.65;;;;;;;23.48;98.56;101181.22;5058335;28;20107;-62
2023/09/11 08:59:22;;;;;;;23.90;14.10;;;;;;;23.50;98.81;101181.66;5070530;28;20048;-62
2023/09/11 09:02:13;;;;;;;24.42;15.70;;;;;;;23.53;99.50;101186.56;5031476;28;20037;-62
2023/09/11 09:05:03;;;;;;;25.52;14.50;;;;;;;23.56;99.06;101185.84;5050829;28;20163;-61
2023/09/11 09:07:52;;;;;;;23.85;13.65;;;;;;;23.59;98.66;101182.38;5061413;28;20051;-63
2023/09/11 09:10:40;;;;;;;19.10;12.85;;;;;;;23.63;98.55;101191.66;5056609;28;20048;-62
2023/09/11 09:13:36;;;;;;;25.92;14.07;;;;;;;23.67;99.21;101194.53;5056196;28;20131;-63
2023/09/11 09:16:23;;;;;;;;;;;;;;;23.69;98.81;101190.25;5057548;28;20159;-63
2023/09/11 09:19:12;;;;;;;18.70;10.98;;;;;;;23.72;98.16;101183.19;5070628;28;20447;-64
2023/09/11 09:22:04;;;;;;;24.83;14.43;;;;;;;23.74;97.95;101181.72;5042988;28;20501;-62
2023/09/11 09:24:55;;;;;;;21.35;14.73;;;;;;;23.78;97.92;101177.03;5072464;28;20558;-62
2023/09/11 09:27:44;;;;;;;23.50;15.30;;;;;;;23.80;98.51;101173.94;5060599;28;20439;-62
2023/09/11 09:30:33;;;;;;;26.90;15.18;;;;;;;23.81;98.62;101173.59;5040317;28;20037;-62
2023/09/11 09:33:21;;;;;;;22.08;14.15;;;;;;;23.85;98.38;101181.22;5066922;28;20508;-62
2023/09/11 09:36:09;;;;;;;19.70;13.18;;;;;;;23.92;98.43;101181.44;5055727;28;20052;-62
2023/09/11 09:38:57;;;;;;;22.27;11.73;;;;;;;23.95;95.34;101177.97;5074693;28;20408;-63
2023/09/11 09:42:04;;;;;;;18.95;11.98;;;;;;;23.99;95.08;101176.91;5047232;28;20049;-63
2023/09/11 09:44:53;;;;;;;25.65;14.32;;;;;;;24.06;94.83;101176.31;5076957;28;20040;-62
2023/09/11 09:47:41;;;;;;;23.55;13.75;;;;;;;24.11;94.89;101178.84;5061264;28;20404;-62
2023/09/11 09:50:29;;;;;;;22.38;11.65;;;;;;;24.15;92.53;101174.22;5072830;28;20052;-63
2023/09/11 09:53:42;;;;;;;25.10;12.02;;;;;;;24.28;92.51;101176.97;5060485;28;20066;-63
2023/09/11 09:56:30;;;;;;;19.38;12.15;;;;;;;24.35;91.25;101188.31;5060815;28;20037;-62
2023/09/11 09:59:24;;;;;;;22.33;13.35;;;;;;;24.36;92.73;101178.78;5060356;28;20524;-62
2023/09/11 10:02:13;;;;;;;24.75;12.40;;;;;;;24.36;93.22;101178.78;5040814;28;20055;-63
2023/09/11 10:05:06;;;;;;;20.23;12.70;;;;;;;24.37;91.54;101174.84;5041319;28;20064;-62
2023/09/11 10:07:59;;;;;;;23.25;10.88;;;;;;;24.40;91.79;101174.94;5044723;28;20115;-62
2023/09/11 10:10:47;;;;;;;17.17;10.73;;;;;;;24.48;90.94;101170.41;5044202;28;20049;-61
2023/09/11 10:13:38;;;;;;;19.08;11.40;;;;;;;24.51;89.68;101166.94;5074211;28;20055;-61
2023/09/11 10:16:28;;;;;;;19.95;11.20;;;;;;;24.54;89.44;101169.00;5060378;28;20057;-62
2023/09/11 10:19:16;;;;;;;18.88;10.30;;;;;;;24.58;89.34;101172.72;5025913;28;20053;-60
2023/09/11 10:22:06;;;;;;;17.90;11.32;;;;;;;24.62;89.53;101178.38;5052728;28;20045;-63
2023/09/11 10:24:54;;;;;;;18.45;10.13;;;;;;;24.64;89.49;101173.25;5072335;28;20107;-61
2023/09/11 10:27:42;;;;;;;18.45;11.05;;;;;;;24.67;88.28;101173.34;5074960;28;20129;-60
2023/09/11 10:30:39;;;;;;;17.15;10.57;;;;;;;24.67;88.72;101156.63;5056774;28;20053;-61
2023/09/11 10:33:38;;;;;;;20.52;10.82;;;;;;;24.70;89.74;101165.44;5041653;28;20076;-61
2023/09/11 10:36:35;;;;;;;18.65;12.27;;;;;;;24.75;89.69;101167.97;4354499;28;10001533;-62
2023/09/11 10:39:23;;;;;;;22.52;13.88;;;;;;;24.79;89.77;101160.50;5037398;28;20049;-63
2023/09/11 10:42:11;;;;;;;20.33;11.63;;;;;;;24.81;90.03;101150.63;5035446;28;20130;-63
2023/09/11 10:44:59;;;;;;;21.40;10.48;;;;;;;24.86;89.34;101147.56;5035755;28;20045;-61
2023/09/11 10:47:51;;;;;;;16.80;11.15;;;;;;;24.91;87.55;101154.88;5049721;28;20088;-62
2023/09/11 10:50:44;;;;;;;18.42;8.95;;;;;;;24.90;87.40;101158.84;5056174;28;20151;-63
2023/09/11 10:53:32;;;;;;;18.55;9.20;;;;;;;24.93;87.16;101155.31;5053576;28;20045;-63
2023/09/11 10:56:21;;;;;;;17.40;9.95;;;;;;;24.93;87.01;101160.91;5068948;28;20507;-63
2023/09/11 10:59:10;;;;;;;18.98;10.25;;;;;;;24.94;87.16;101165.28;5055300;28;20041;-63
2023/09/11 11:01:58;;;;;;;18.75;11.40;;;;;;;24.94;86.79;101159.72;5049780;28;20049;-62
2023/09/11 11:04:47;;;;;;;19.50;10.43;;;;;;;24.98;86.18;101165.41;5022053;28;20053;-63
2023/09/11 11:07:35;;;;;;;22.40;10.43;;;;;;;25.04;86.65;101148.06;5021123;28;20041;-63
2023/09/11 11:10:23;;;;;;;15.95;9.75;;;;;;;25.06;87.37;101154.09;5054569;28;20079;-62
2023/09/11 11:13:11;;;;;;;17.13;10.85;;;;;;;25.06;87.11;101154.09;5067674;28;20516;-62
2023/09/11 11:16:17;;;;;;;17.00;11.00;;;;;;;25.13;87.34;101155.44;5054343;28;20048;-63
2023/09/11 11:19:06;;;;;;;16.88;10.13;;;;;;;25.16;85.95;101149.13;5051266;28;20124;-62
2023/09/11 11:21:54;;;;;;;17.70;10.05;;;;;;;25.16;86.57;101143.53;5053932;28;20066;-61
2023/09/11 11:24:57;;;;;;;19.98;11.15;;;;;;;25.17;86.18;101154.38;5039156;28;20049;-62
2023/09/11 11:27:45;;;;;;;16.95;9.88;;;;;;;25.20;85.25;101155.63;5039833;28;20072;-62
2023/09/11 11:30:35;;;;;;;22.10;11.82;;;;;;;25.25;84.68;101158.16;5052916;28;20393;-62
2023/09/11 11:33:24;;;;;;;19.52;10.60;;;;;;;25.27;85.43;101156.63;5052240;28;20055;-63
2023/09/11 11:36:14;;;;;;;20.92;10.65;;;;;;;25.30;84.93;101160.66;5057156;28;20049;-63
2023/09/11 11:39:03;;;;;;;22.92;10.93;;;;;;;25.33;84.81;101157.19;5071392;28;20183;-62
2023/09/11 11:41:52;;;;;;;17.52;9.32;;;;;;;25.37;84.76;101140.50;5072436;28;20044;-63
2023/09/11 11:44:41;;;;;;;15.48;9.30;;;;;;;25.38;83.66;101145.75;5071203;28;20193;-63
2023/09/11 11:47:31;;;;;;;16.98;8.35;;;;;;;25.43;82.17;101150.25;5069717;28;20059;-62
2023/09/11 11:50:20;;;;;;;17.00;7.85;;;;;;;25.49;81.01;101148.78;5052395;28;20044;-62
2023/09/11 11:53:15;;;;;;;20.05;7.72;;;;;;;25.53;79.73;101138.53;5051721;28;20087;-62
2023/09/11 11:56:04;;;;;;;18.00;7.80;;;;;;;25.56;78.70;101145.34;4698255;28;10000664;-63
2023/09/11 11:58:56;;;;;;;12.65;7.25;;;;;;;25.63;77.35;101139.94;5065612;28;20049;-62
2023/09/11 12:01:45;;;;;;;16.27;7.45;;;;;;;25.66;78.21;101151.19;5067791;28;20155;-62
2023/09/11 12:04:33;;;;;;;18.05;7.85;;;;;;;25.68;77.69;101142.44;5053439;28;20048;-62
2023/09/11 12:07:36;;;;;;;16.58;8.20;;;;;;;25.69;78.52;101146.88;5051515;28;20040;-63
2023/09/11 12:10:24;;;;;;;13.68;7.60;;;;;;;25.73;78.57;101151.34;5048904;28;20072;-62
2023/09/11 12:13:16;;;;;;;14.60;7.95;;;;;;;25.77;78.34;101145.84;5054423;28;20118;-63
2023/09/11 12:16:04;;;;;;;15.60;7.70;;;;;;;25.80;77.61;101150.69;5066159;28;20118;-63
2023/09/11 12:18:52;;;;;;;18.00;7.60;;;;;;;25.87;78.22;101145.31;5041133;28;20119;-63
2023/09/11 12:21:42;;;;;;;17.88;8.30;;;;;;;25.90;78.26;101157.72;5050435;28;20489;-64
2023/09/11 12:24:31;;;;;;;17.63;7.95;;;;;;;25.95;76.80;101156.63;5053043;28;20071;-64
2023/09/11 12:27:19;;;;;;;19.98;8.68;;;;;;;25.93;78.27;101155.03;5066627;28;20119;-63
2023/09/11 12:30:07;;;;;;;15.18;7.68;;;;;;;25.97;77.82;101148.72;5056230;28;20057;-64
2023/09/11 12:32:55;;;;;;;13.25;7.63;;;;;;;25.96;77.76;101152.69;5044406;28;20044;-62
2023/09/11 12:35:44;;;;;;;16.48;7.22;;;;;;;25.98;76.79;101147.53;5053363;28;20078;-63
2023/09/11 12:38:32;;;;;;;19.25;8.30;;;;;;;25.99;77.84;101143.56;5032336;28;20053;-63
2023/09/11 12:41:24;;;;;;;20.02;7.85;;;;;;;26.03;77.30;101136.88;5047669;28;20041;-63
2023/09/11 12:44:13;;;;;;;13.20;7.65;;;;;;;26.05;77.60;101139.31;5045722;28;20056;-63
2023/09/11 12:47:01;;;;;;;15.20;6.97;;;;;;;26.05;77.57;101136.50;5048724;28;20051;-62
2023/09/11 12:49:49;;;;;;;12.63;6.68;;;;;;;26.09;77.15;101134.59;5047620;28;20049;-64